aviador You're here:

LEJR Decoded Metar

JEREZ in SPAIN
Report Time2017-09-23 18:00:00
UTC Time2017-09-23 18:24:33
Flight Rules vfr VFR
Wind160° at 08 kt
W.Decomp.*RWY 20: 6.3 kt HW 4.9 kt LCW
W.Rank160° ranks 10
Current wind is above 160° avg. (7.2)
Visibility9999 m
Phenomena:N/A
Clouds:N/A
Expected CloudBase > 4,400 ft AGL from Temp-Dew spread
CeilingNone
Temp27°C (ISA +12)
Dew Point16°C (51% RH)
Heat Index27.5°C
AAT26.1°C
QNH1017 hPa
Density Alt1,614 ft
Elevation98 ft
Report Wrong Elevation
Raw Report
LEJR 231800Z 16008KT 120V200 CAVOK 27/16 Q1017=

Extra information for LEJR:More info

Metar Taf Metar & Taf Last 4 Metars F.Rules Stats Wind Profile Meteogram Temp Stats Airport Information Weather charts Add Link Nearby VenuesMetar ALERT Operation Metar Decoded Social comments